sensor_id;sensor_type;location;lat;lon;timestamp;P1;P2;P0
55686;PMS5003;41911;52.362;4.978;2022-09-09T00:00:00;4.0;4.0;
55686;PMS5003;41911;52.362;4.978;2022-09-09T00:00:37;4.0;4.0;
55686;PMS5003;41911;52.362;4.978;2022-09-09T00:01:14;4.0;4.0;
55686;PMS5003;41911;52.362;4.978;2022-09-09T00:02:01;4.0;4.0;
55686;PMS5003;41911;52.362;4.978;2022-09-09T00:02:35;5.0;5.0;
55686;PMS5003;41911;52.362;4.978;2022-09-09T00:03:08;4.0;4.0;
55686;PMS5003;41911;52.362;4.978;2022-09-09T00:03:47;2.0;2.0;
55686;PMS5003;41911;52.362;4.978;2022-09-09T00:04:26;5.0;5.0;
55686;PMS5003;41911;52.362;4.978;2022-09-09T00:04:59;5.0;4.0;
55686;PMS5003;41911;52.362;4.978;2022-09-09T00:05:41;5.0;5.0;
55686;PMS5003;41911;52.362;4.978;2022-09-09T00:06:21;3.0;3.0;
55686;PMS5003;41911;52.362;4.978;2022-09-09T00:06:58;4.0;4.0;
55686;PMS5003;41911;52.362;4.978;2022-09-09T00:07:36;4.0;4.0;
55686;PMS5003;41911;52.362;4.978;2022-09-09T00:08:15;4.0;4.0;
55686;PMS5003;41911;52.362;4.978;2022-09-09T00:08:53;4.0;4.0;
55686;PMS5003;41911;52.362;4.978;2022-09-09T00:09:35;3.0;3.0;
55686;PMS5003;41911;52.362;4.978;2022-09-09T00:10:17;5.0;5.0;
55686;PMS5003;41911;52.362;4.978;2022-09-09T00:10:54;4.0;4.0;
55686;PMS5003;41911;52.362;4.978;2022-09-09T00:11:36;4.0;4.0;
55686;PMS5003;41911;52.362;4.978;2022-09-09T00:12:15;4.0;4.0;
55686;PMS5003;41911;52.362;4.978;2022-09-09T00:12:54;4.0;4.0;
55686;PMS5003;41911;52.362;4.978;2022-09-09T00:13:34;6.0;4.0;
55686;PMS5003;41911;52.362;4.978;2022-09-09T00:14:12;4.0;4.0;
55686;PMS5003;41911;52.362;4.978;2022-09-09T00:14:50;5.0;5.0;
55686;PMS5003;41911;52.362;4.978;2022-09-09T00:15:25;3.0;3.0;
55686;PMS5003;41911;52.362;4.978;2022-09-09T00:16:04;5.0;4.0;
55686;PMS5003;41911;52.362;4.978;2022-09-09T00:16:45;6.0;6.0;
55686;PMS5003;41911;52.362;4.978;2022-09-09T00:17:28;5.0;5.0;
55686;PMS5003;41911;52.362;4.978;2022-09-09T00:18:09;5.0;4.0;
55686;PMS5003;41911;52.362;4.978;2022-09-09T00:18:53;5.0;4.0;
55686;PMS5003;41911;52.362;4.978;2022-09-09T00:19:31;5.0;5.0;
55686;PMS5003;41911;52.362;4.978;2022-09-09T00:20:11;4.0;4.0;
55686;PMS5003;41911;52.362;4.978;2022-09-09T00:20:46;4.0;3.0;
55686;PMS5003;41911;52.362;4.978;2022-09-09T00:21:24;4.0;4.0;
55686;PMS5003;41911;52.362;4.978;2022-09-09T00:22:05;3.0;3.0;
55686;PMS5003;41911;52.362;4.978;2022-09-09T00:22:45;6.0;5.0;
55686;PMS5003;41911;52.362;4.978;2022-09-09T00:23:24;4.0;4.0;
55686;PMS5003;41911;52.362;4.978;2022-09-09T00:24:00;3.0;3.0;
55686;PMS5003;41911;52.362;4.978;2022-09-09T00:24:39;5.0;5.0;
55686;PMS5003;41911;52.362;4.978;2022-09-09T00:25:15;8.0;5.0;
55686;PMS5003;41911;52.362;4.978;2022-09-09T00:25:59;5.0;5.0;
55686;PMS5003;41911;52.362;4.978;2022-09-09T00:26:38;6.0;6.0;
55686;PMS5003;41911;52.362;4.978;2022-09-09T00:27:16;7.0;6.0;
55686;PMS5003;41911;52.362;4.978;2022-09-09T00:27:54;7.0;7.0;
55686;PMS5003;41911;52.362;4.978;2022-09-09T00:28:26;6.0;6.0;
55686;PMS5003;41911;52.362;4.978;2022-09-09T00:29:00;6.0;6.0;
55686;PMS5003;41911;52.362;4.978;2022-09-09T00:29:47;5.0;5.0;
55686;PMS5003;41911;52.362;4.978;2022-09-09T00:30:24;6.0;5.0;
55686;PMS5003;41911;52.362;4.978;2022-09-09T00:30:57;7.0;7.0;
55686;PMS5003;41911;52.362;4.978;2022-09-09T00:31:39;7.0;6.0;
55686;PMS5003;41911;52.362;4.978;2022-09-09T00:32:12;7.0;5.0;
55686;PMS5003;41911;52.362;4.978;2022-09-09T00:32:47;5.0;5.0;
55686;PMS5003;41911;52.362;4.978;2022-09-09T00:33:19;5.0;5.0;
55686;PMS5003;41911;52.362;4.978;2022-09-09T00:33:53;8.0;8.0;
55686;PMS5003;41911;52.362;4.978;2022-09-09T00:34:29;5.0;5.0;
55686;PMS5003;41911;52.362;4.978;2022-09-09T00:35:03;5.0;5.0;
55686;PMS5003;41911;52.362;4.978;2022-09-09T00:35:45;7.0;7.0;
55686;PMS5003;41911;52.362;4.978;2022-09-09T00:36:21;7.0;7.0;
55686;PMS5003;41911;52.362;4.978;2022-09-09T00:36:54;7.0;7.0;
55686;PMS5003;41911;52.362;4.978;2022-09-09T00:37:27;7.0;7.0;
55686;PMS5003;41911;52.362;4.978;2022-09-09T00:38:02;7.0;7.0;
55686;PMS5003;41911;52.362;4.978;2022-09-09T00:38:40;7.0;6.0;
55686;PMS5003;41911;52.362;4.978;2022-09-09T00:39:18;6.0;6.0;
55686;PMS5003;41911;52.362;4.978;2022-09-09T00:39:57;6.0;6.0;
55686;PMS5003;41911;52.362;4.978;2022-09-09T00:40:32;6.0;6.0;
55686;PMS5003;41911;52.362;4.978;2022-09-09T00:41:07;11.0;9.0;
55686;PMS5003;41911;52.362;4.978;2022-09-09T00:41:54;8.0;7.0;
55686;PMS5003;41911;52.362;4.978;2022-09-09T00:42:36;7.0;7.0;
55686;PMS5003;41911;52.362;4.978;2022-09-09T00:43:19;8.0;8.0;
55686;PMS5003;41911;52.362;4.978;2022-09-09T00:43:57;9.0;8.0;
55686;PMS5003;41911;52.362;4.978;2022-09-09T00:44:33;9.0;7.0;
55686;PMS5003;41911;52.362;4.978;2022-09-09T00:45:10;6.0;6.0;
55686;PMS5003;41911;52.362;4.978;2022-09-09T00:46:02;9.0;9.0;
55686;PMS5003;41911;52.362;4.978;2022-09-09T00:46:50;7.0;7.0;
55686;PMS5003;41911;52.362;4.978;2022-09-09T00:47:32;8.0;7.0;
55686;PMS5003;41911;52.362;4.978;2022-09-09T00:48:10;9.0;8.0;
55686;PMS5003;41911;52.362;4.978;2022-09-09T00:48:44;10.0;10.0;
55686;PMS5003;41911;52.362;4.978;2022-09-09T00:49:27;8.0;8.0;
55686;PMS5003;41911;52.362;4.978;2022-09-09T00:50:14;11.0;9.0;
55686;PMS5003;41911;52.362;4.978;2022-09-09T00:50:56;8.0;8.0;
55686;PMS5003;41911;52.362;4.978;2022-09-09T00:51:34;13.0;12.0;
55686;PMS5003;41911;52.362;4.978;2022-09-09T00:52:22;11.0;10.0;
55686;PMS5003;41911;52.362;4.978;2022-09-09T00:53:05;10.0;10.0;
55686;PMS5003;41911;52.362;4.978;2022-09-09T00:53:56;10.0;10.0;
55686;PMS5003;41911;52.362;4.978;2022-09-09T00:54:40;11.0;11.0;
55686;PMS5003;41911;52.362;4.978;2022-09-09T00:55:21;10.0;10.0;
55686;PMS5003;41911;52.362;4.978;2022-09-09T00:56:00;13.0;11.0;
55686;PMS5003;41911;52.362;4.978;2022-09-09T00:56:41;11.0;11.0;
55686;PMS5003;41911;52.362;4.978;2022-09-09T00:57:22;10.0;10.0;
55686;PMS5003;41911;52.362;4.978;2022-09-09T00:57:56;10.0;10.0;
55686;PMS5003;41911;52.362;4.978;2022-09-09T00:58:28;10.0;10.0;
55686;PMS5003;41911;52.362;4.978;2022-09-09T00:59:00;11.0;10.0;
55686;PMS5003;41911;52.362;4.978;2022-09-09T00:59:40;11.0;10.0;
55686;PMS5003;41911;52.362;4.978;2022-09-09T01:00:20;9.0;9.0;
55686;PMS5003;41911;52.362;4.978;2022-09-09T01:00:55;11.0;11.0;
55686;PMS5003;41911;52.362;4.978;2022-09-09T01:01:33;11.0;11.0;
55686;PMS5003;41911;52.362;4.978;2022-09-09T01:02:06;10.0;10.0;
55686;PMS5003;41911;52.362;4.978;2022-09-09T01:02:46;10.0;9.0;
55686;PMS5003;41911;52.362;4.978;2022-09-09T01:03:26;11.0;10.0;
55686;PMS5003;41911;52.362;4.978;2022-09-09T01:04:07;11.0;11.0;
55686;PMS5003;41911;52.362;4.978;2022-09-09T01:04:42;12.0;11.0;
55686;PMS5003;41911;52.362;4.978;2022-09-09T01:05:16;12.0;10.0;
55686;PMS5003;41911;52.362;4.978;2022-09-09T01:05:56;11.0;11.0;
55686;PMS5003;41911;52.362;4.978;2022-09-09T01:06:32;14.0;12.0;
55686;PMS5003;41911;52.362;4.978;2022-09-09T01:07:06;11.0;11.0;
55686;PMS5003;41911;52.362;4.978;2022-09-09T01:07:47;11.0;11.0;
55686;PMS5003;41911;52.362;4.978;2022-09-09T01:08:26;14.0;13.0;
55686;PMS5003;41911;52.362;4.978;2022-09-09T01:09:10;11.0;11.0;
55686;PMS5003;41911;52.362;4.978;2022-09-09T01:09:52;14.0;12.0;
55686;PMS5003;41911;52.362;4.978;2022-09-09T01:10:30;11.0;10.0;
55686;PMS5003;41911;52.362;4.978;2022-09-09T01:11:10;11.0;11.0;
55686;PMS5003;41911;52.362;4.978;2022-09-09T01:11:55;12.0;9.0;
55686;PMS5003;41911;52.362;4.978;2022-09-09T01:12:38;11.0;10.0;
55686;PMS5003;41911;52.362;4.978;2022-09-09T01:13:13;12.0;12.0;
55686;PMS5003;41911;52.362;4.978;2022-09-09T01:13:53;12.0;12.0;
55686;PMS5003;41911;52.362;4.978;2022-09-09T01:14:38;14.0;13.0;
55686;PMS5003;41911;52.362;4.978;2022-09-09T01:15:13;12.0;12.0;
55686;PMS5003;41911;52.362;4.978;2022-09-09T01:15:48;13.0;11.0;
55686;PMS5003;41911;52.362;4.978;2022-09-09T01:16:20;13.0;13.0;
55686;PMS5003;41911;52.362;4.978;2022-09-09T01:16:52;12.0;12.0;
55686;PMS5003;41911;52.362;4.978;2022-09-09T01:17:28;12.0;12.0;
55686;PMS5003;41911;52.362;4.978;2022-09-09T01:18:05;12.0;12.0;
55686;PMS5003;41911;52.362;4.978;2022-09-09T01:18:43;12.0;12.0;
55686;PMS5003;41911;52.362;4.978;2022-09-09T01:19:18;13.0;12.0;
55686;PMS5003;41911;52.362;4.978;2022-09-09T01:19:58;14.0;14.0;
55686;PMS5003;41911;52.362;4.978;2022-09-09T01:20:38;10.0;10.0;
55686;PMS5003;41911;52.362;4.978;2022-09-09T01:21:16;12.0;12.0;
55686;PMS5003;41911;52.362;4.978;2022-09-09T01:21:56;13.0;13.0;
55686;PMS5003;41911;52.362;4.978;2022-09-09T01:22:39;15.0;15.0;
55686;PMS5003;41911;52.362;4.978;2022-09-09T01:23:22;10.0;10.0;
55686;PMS5003;41911;52.362;4.978;2022-09-09T01:24:15;13.0;13.0;
55686;PMS5003;41911;52.362;4.978;2022-09-09T01:25:05;13.0;13.0;
55686;PMS5003;41911;52.362;4.978;2022-09-09T01:26:09;14.0;14.0;
55686;PMS5003;41911;52.362;4.978;2022-09-09T01:26:46;12.0;12.0;
55686;PMS5003;41911;52.362;4.978;2022-09-09T01:27:19;13.0;13.0;
55686;PMS5003;41911;52.362;4.978;2022-09-09T01:27:53;15.0;15.0;
55686;PMS5003;41911;52.362;4.978;2022-09-09T01:28:27;17.0;16.0;
55686;PMS5003;41911;52.362;4.978;2022-09-09T01:29:00;17.0;17.0;
55686;PMS5003;41911;52.362;4.978;2022-09-09T01:29:31;16.0;15.0;
55686;PMS5003;41911;52.362;4.978;2022-09-09T01:30:04;14.0;13.0;
55686;PMS5003;41911;52.362;4.978;2022-09-09T01:30:40;15.0;15.0;
55686;PMS5003;41911;52.362;4.978;2022-09-09T01:31:14;18.0;17.0;
55686;PMS5003;41911;52.362;4.978;2022-09-09T01:31:52;16.0;16.0;
55686;PMS5003;41911;52.362;4.978;2022-09-09T01:32:42;11.0;11.0;
55686;PMS5003;41911;52.362;4.978;2022-09-09T01:33:15;15.0;14.0;
55686;PMS5003;41911;52.362;4.978;2022-09-09T01:33:48;13.0;12.0;
55686;PMS5003;41911;52.362;4.978;2022-09-09T01:34:19;15.0;14.0;
55686;PMS5003;41911;52.362;4.978;2022-09-09T01:34:51;17.0;15.0;
55686;PMS5003;41911;52.362;4.978;2022-09-09T01:35:29;17.0;16.0;
55686;PMS5003;41911;52.362;4.978;2022-09-09T01:36:10;18.0;16.0;
55686;PMS5003;41911;52.362;4.978;2022-09-09T01:36:46;14.0;14.0;
55686;PMS5003;41911;52.362;4.978;2022-09-09T01:37:24;16.0;15.0;
55686;PMS5003;41911;52.362;4.978;2022-09-09T01:37:55;14.0;13.0;
55686;PMS5003;41911;52.362;4.978;2022-09-09T01:38:28;16.0;15.0;
55686;PMS5003;41911;52.362;4.978;2022-09-09T01:39:01;12.0;12.0;
55686;PMS5003;41911;52.362;4.978;2022-09-09T01:39:33;14.0;14.0;
55686;PMS5003;41911;52.362;4.978;2022-09-09T01:40:07;14.0;13.0;
55686;PMS5003;41911;52.362;4.978;2022-09-09T01:40:38;14.0;14.0;
55686;PMS5003;41911;52.362;4.978;2022-09-09T01:41:09;15.0;15.0;
55686;PMS5003;41911;52.362;4.978;2022-09-09T01:41:40;14.0;14.0;
55686;PMS5003;41911;52.362;4.978;2022-09-09T01:42:12;16.0;15.0;
55686;PMS5003;41911;52.362;4.978;2022-09-09T01:42:46;14.0;14.0;
55686;PMS5003;41911;52.362;4.978;2022-09-09T01:43:17;16.0;16.0;
55686;PMS5003;41911;52.362;4.978;2022-09-09T01:43:48;12.0;12.0;
55686;PMS5003;41911;52.362;4.978;2022-09-09T01:44:21;18.0;15.0;
55686;PMS5003;41911;52.362;4.978;2022-09-09T01:44:53;15.0;14.0;
55686;PMS5003;41911;52.362;4.978;2022-09-09T01:45:24;16.0;16.0;
55686;PMS5003;41911;52.362;4.978;2022-09-09T01:45:56;18.0;17.0;
55686;PMS5003;41911;52.362;4.978;2022-09-09T01:46:31;17.0;16.0;
55686;PMS5003;41911;52.362;4.978;2022-09-09T01:47:02;15.0;15.0;
55686;PMS5003;41911;52.362;4.978;2022-09-09T01:47:34;14.0;13.0;
55686;PMS5003;41911;52.362;4.978;2022-09-09T01:48:06;14.0;14.0;
55686;PMS5003;41911;52.362;4.978;2022-09-09T01:48:37;12.0;12.0;
55686;PMS5003;41911;52.362;4.978;2022-09-09T01:49:09;16.0;16.0;
55686;PMS5003;41911;52.362;4.978;2022-09-09T01:49:40;17.0;17.0;
55686;PMS5003;41911;52.362;4.978;2022-09-09T01:50:12;18.0;16.0;
55686;PMS5003;41911;52.362;4.978;2022-09-09T01:50:45;16.0;16.0;
55686;PMS5003;41911;52.362;4.978;2022-09-09T01:51:16;17.0;17.0;
55686;PMS5003;41911;52.362;4.978;2022-09-09T01:51:48;15.0;15.0;
55686;PMS5003;41911;52.362;4.978;2022-09-09T01:52:22;14.0;14.0;
55686;PMS5003;41911;52.362;4.978;2022-09-09T01:52:54;17.0;17.0;
55686;PMS5003;41911;52.362;4.978;2022-09-09T01:53:30;18.0;17.0;
55686;PMS5003;41911;52.362;4.978;2022-09-09T01:54:01;14.0;14.0;
55686;PMS5003;41911;52.362;4.978;2022-09-09T01:54:33;15.0;15.0;
55686;PMS5003;41911;52.362;4.978;2022-09-09T01:55:05;17.0;17.0;
55686;PMS5003;41911;52.362;4.978;2022-09-09T01:55:38;14.0;14.0;
55686;PMS5003;41911;52.362;4.978;2022-09-09T01:56:15;16.0;15.0;
55686;PMS5003;41911;52.362;4.978;2022-09-09T01:56:59;18.0;16.0;
55686;PMS5003;41911;52.362;4.978;2022-09-09T01:57:39;16.0;16.0;
55686;PMS5003;41911;52.362;4.978;2022-09-09T01:58:23;14.0;14.0;
55686;PMS5003;41911;52.362;4.978;2022-09-09T01:59:04;18.0;16.0;
55686;PMS5003;41911;52.362;4.978;2022-09-09T01:59:54;18.0;16.0;
55686;PMS5003;41911;52.362;4.978;2022-09-09T02:00:32;14.0;14.0;
55686;PMS5003;41911;52.362;4.978;2022-09-09T02:01:08;14.0;14.0;
55686;PMS5003;41911;52.362;4.978;2022-09-09T02:01:53;15.0;14.0;
55686;PMS5003;41911;52.362;4.978;2022-09-09T02:02:35;16.0;15.0;
55686;PMS5003;41911;52.362;4.978;2022-09-09T02:03:13;14.0;14.0;
55686;PMS5003;41911;52.362;4.978;2022-09-09T02:03:52;15.0;14.0;
55686;PMS5003;41911;52.362;4.978;2022-09-09T02:04:30;17.0;15.0;
55686;PMS5003;41911;52.362;4.978;2022-09-09T02:05:11;16.0;15.0;
55686;PMS5003;41911;52.362;4.978;2022-09-09T02:05:55;16.0;15.0;
55686;PMS5003;41911;52.362;4.978;2022-09-09T02:06:36;17.0;16.0;
55686;PMS5003;41911;52.362;4.978;2022-09-09T02:07:16;17.0;16.0;
55686;PMS5003;41911;52.362;4.978;2022-09-09T02:08:00;15.0;15.0;
55686;PMS5003;41911;52.362;4.978;2022-09-09T02:08:39;15.0;14.0;
55686;PMS5003;41911;52.362;4.978;2022-09-09T02:09:14;16.0;16.0;
55686;PMS5003;41911;52.362;4.978;2022-09-09T02:09:56;12.0;12.0;
55686;PMS5003;41911;52.362;4.978;2022-09-09T02:10:33;14.0;13.0;
55686;PMS5003;41911;52.362;4.978;2022-09-09T02:11:15;13.0;13.0;
55686;PMS5003;41911;52.362;4.978;2022-09-09T02:11:47;15.0;14.0;
55686;PMS5003;41911;52.362;4.978;2022-09-09T02:12:26;13.0;13.0;
55686;PMS5003;41911;52.362;4.978;2022-09-09T02:13:01;16.0;15.0;
55686;PMS5003;41911;52.362;4.978;2022-09-09T02:13:36;15.0;14.0;
55686;PMS5003;41911;52.362;4.978;2022-09-09T02:14:09;15.0;13.0;
55686;PMS5003;41911;52.362;4.978;2022-09-09T02:14:49;16.0;15.0;
55686;PMS5003;41911;52.362;4.978;2022-09-09T02:15:26;15.0;15.0;
55686;PMS5003;41911;52.362;4.978;2022-09-09T02:16:04;18.0;16.0;
55686;PMS5003;41911;52.362;4.978;2022-09-09T02:16:42;16.0;15.0;
55686;PMS5003;41911;52.362;4.978;2022-09-09T02:17:19;13.0;13.0;
55686;PMS5003;41911;52.362;4.978;2022-09-09T02:17:58;14.0;14.0;
55686;PMS5003;41911;52.362;4.978;2022-09-09T02:18:35;15.0;14.0;
55686;PMS5003;41911;52.362;4.978;2022-09-09T02:19:13;18.0;15.0;
55686;PMS5003;41911;52.362;4.978;2022-09-09T02:19:50;14.0;14.0;
55686;PMS5003;41911;52.362;4.978;2022-09-09T02:20:28;15.0;15.0;
55686;PMS5003;41911;52.362;4.978;2022-09-09T02:21:02;15.0;15.0;
55686;PMS5003;41911;52.362;4.978;2022-09-09T02:21:35;16.0;16.0;
55686;PMS5003;41911;52.362;4.978;2022-09-09T02:22:06;15.0;15.0;
55686;PMS5003;41911;52.362;4.978;2022-09-09T02:22:38;14.0;12.0;
55686;PMS5003;41911;52.362;4.978;2022-09-09T02:23:13;16.0;15.0;
55686;PMS5003;41911;52.362;4.978;2022-09-09T02:23:46;12.0;12.0;
55686;PMS5003;41911;52.362;4.978;2022-09-09T02:24:19;16.0;16.0;
55686;PMS5003;41911;52.362;4.978;2022-09-09T02:24:52;15.0;15.0;
55686;PMS5003;41911;52.362;4.978;2022-09-09T02:25:29;13.0;12.0;
55686;PMS5003;41911;52.362;4.978;2022-09-09T02:26:00;16.0;16.0;
55686;PMS5003;41911;52.362;4.978;2022-09-09T02:26:33;14.0;13.0;
55686;PMS5003;41911;52.362;4.978;2022-09-09T02:27:09;12.0;12.0;
55686;PMS5003;41911;52.362;4.978;2022-09-09T02:27:42;11.0;11.0;
55686;PMS5003;41911;52.362;4.978;2022-09-09T02:28:16;15.0;14.0;
55686;PMS5003;41911;52.362;4.978;2022-09-09T02:28:49;14.0;14.0;
55686;PMS5003;41911;52.362;4.978;2022-09-09T02:29:25;14.0;13.0;
55686;PMS5003;41911;52.362;4.978;2022-09-09T02:30:00;14.0;14.0;
55686;PMS5003;41911;52.362;4.978;2022-09-09T02:30:33;17.0;16.0;
55686;PMS5003;41911;52.362;4.978;2022-09-09T02:31:07;14.0;14.0;
55686;PMS5003;41911;52.362;4.978;2022-09-09T02:31:38;13.0;13.0;
55686;PMS5003;41911;52.362;4.978;2022-09-09T02:32:12;15.0;14.0;
55686;PMS5003;41911;52.362;4.978;2022-09-09T02:32:46;18.0;16.0;
55686;PMS5003;41911;52.362;4.978;2022-09-09T02:33:21;16.0;15.0;
55686;PMS5003;41911;52.362;4.978;2022-09-09T02:33:57;15.0;15.0;
55686;PMS5003;41911;52.362;4.978;2022-09-09T02:34:31;12.0;12.0;
55686;PMS5003;41911;52.362;4.978;2022-09-09T02:35:11;12.0;11.0;
55686;PMS5003;41911;52.362;4.978;2022-09-09T02:35:43;14.0;13.0;
55686;PMS5003;41911;52.362;4.978;2022-09-09T02:36:16;13.0;13.0;
55686;PMS5003;41911;52.362;4.978;2022-09-09T02:36:49;15.0;14.0;
55686;PMS5003;41911;52.362;4.978;2022-09-09T02:37:24;13.0;13.0;
55686;PMS5003;41911;52.362;4.978;2022-09-09T02:38:02;13.0;13.0;
55686;PMS5003;41911;52.362;4.978;2022-09-09T02:38:40;15.0;14.0;
55686;PMS5003;41911;52.362;4.978;2022-09-09T02:39:16;13.0;13.0;
55686;PMS5003;41911;52.362;4.978;2022-09-09T02:39:47;14.0;13.0;
55686;PMS5003;41911;52.362;4.978;2022-09-09T02:40:18;12.0;12.0;
55686;PMS5003;41911;52.362;4.978;2022-09-09T02:40:49;12.0;12.0;
55686;PMS5003;41911;52.362;4.978;2022-09-09T02:41:21;14.0;13.0;
55686;PMS5003;41911;52.362;4.978;2022-09-09T02:41:56;14.0;13.0;
55686;PMS5003;41911;52.362;4.978;2022-09-09T02:42:27;12.0;12.0;
55686;PMS5003;41911;52.362;4.978;2022-09-09T02:42:58;12.0;12.0;
55686;PMS5003;41911;52.362;4.978;2022-09-09T02:43:30;14.0;13.0;
55686;PMS5003;41911;52.362;4.978;2022-09-09T02:44:04;11.0;10.0;
55686;PMS5003;41911;52.362;4.978;2022-09-09T02:44:36;12.0;12.0;
55686;PMS5003;41911;52.362;4.978;2022-09-09T02:45:07;13.0;13.0;
55686;PMS5003;41911;52.362;4.978;2022-09-09T02:45:41;14.0;14.0;
55686;PMS5003;41911;52.362;4.978;2022-09-09T02:46:24;13.0;12.0;
55686;PMS5003;41911;52.362;4.978;2022-09-09T02:47:09;13.0;13.0;
55686;PMS5003;41911;52.362;4.978;2022-09-09T02:47:53;9.0;9.0;
55686;PMS5003;41911;52.362;4.978;2022-09-09T02:48:34;14.0;13.0;
55686;PMS5003;41911;52.362;4.978;2022-09-09T02:49:16;11.0;11.0;
55686;PMS5003;41911;52.362;4.978;2022-09-09T02:49:58;15.0;14.0;
55686;PMS5003;41911;52.362;4.978;2022-09-09T02:50:42;12.0;12.0;
55686;PMS5003;41911;52.362;4.978;2022-09-09T02:51:24;12.0;11.0;
55686;PMS5003;41911;52.362;4.978;2022-09-09T02:52:04;11.0;11.0;
55686;PMS5003;41911;52.362;4.978;2022-09-09T02:52:40;12.0;12.0;
55686;PMS5003;41911;52.362;4.978;2022-09-09T02:53:20;12.0;12.0;
55686;PMS5003;41911;52.362;4.978;2022-09-09T02:53:59;12.0;11.0;
55686;PMS5003;41911;52.362;4.978;2022-09-09T02:54:39;12.0;12.0;
55686;PMS5003;41911;52.362;4.978;2022-09-09T02:55:11;12.0;12.0;
55686;PMS5003;41911;52.362;4.978;2022-09-09T02:55:48;12.0;12.0;
55686;PMS5003;41911;52.362;4.978;2022-09-09T02:56:25;14.0;13.0;
55686;PMS5003;41911;52.362;4.978;2022-09-09T02:57:04;12.0;12.0;
55686;PMS5003;41911;52.362;4.978;2022-09-09T02:57:38;14.0;14.0;
55686;PMS5003;41911;52.362;4.978;2022-09-09T02:58:11;12.0;11.0;
55686;PMS5003;41911;52.362;4.978;2022-09-09T02:58:44;12.0;11.0;
55686;PMS5003;41911;52.362;4.978;2022-09-09T02:59:16;13.0;13.0;
55686;PMS5003;41911;52.362;4.978;2022-09-09T02:59:47;11.0;11.0;
55686;PMS5003;41911;52.362;4.978;2022-09-09T03:00:24;11.0;11.0;
55686;PMS5003;41911;52.362;4.978;2022-09-09T03:00:56;12.0;10.0;
55686;PMS5003;41911;52.362;4.978;2022-09-09T03:01:28;12.0;12.0;
55686;PMS5003;41911;52.362;4.978;2022-09-09T03:01:59;14.0;13.0;
55686;PMS5003;41911;52.362;4.978;2022-09-09T03:02:30;11.0;11.0;
55686;PMS5003;41911;52.362;4.978;2022-09-09T03:03:01;10.0;9.0;
55686;PMS5003;41911;52.362;4.978;2022-09-09T03:03:32;12.0;11.0;
55686;PMS5003;41911;52.362;4.978;2022-09-09T03:04:04;12.0;12.0;
55686;PMS5003;41911;52.362;4.978;2022-09-09T03:04:35;13.0;13.0;
55686;PMS5003;41911;52.362;4.978;2022-09-09T03:05:06;12.0;11.0;
55686;PMS5003;41911;52.362;4.978;2022-09-09T03:05:38;12.0;12.0;
55686;PMS5003;41911;52.362;4.978;2022-09-09T03:06:09;13.0;12.0;
55686;PMS5003;41911;52.362;4.978;2022-09-09T03:06:40;11.0;11.0;
55686;PMS5003;41911;52.362;4.978;2022-09-09T03:07:11;12.0;12.0;
55686;PMS5003;41911;52.362;4.978;2022-09-09T03:07:42;13.0;13.0;
55686;PMS5003;41911;52.362;4.978;2022-09-09T03:08:13;13.0;10.0;
55686;PMS5003;41911;52.362;4.978;2022-09-09T03:08:44;12.0;11.0;
55686;PMS5003;41911;52.362;4.978;2022-09-09T03:09:15;13.0;12.0;
55686;PMS5003;41911;52.362;4.978;2022-09-09T03:09:46;13.0;13.0;
55686;PMS5003;41911;52.362;4.978;2022-09-09T03:10:17;13.0;12.0;
55686;PMS5003;41911;52.362;4.978;2022-09-09T03:10:48;12.0;12.0;
55686;PMS5003;41911;52.362;4.978;2022-09-09T03:11:19;11.0;11.0;
55686;PMS5003;41911;52.362;4.978;2022-09-09T03:11:50;13.0;12.0;
55686;PMS5003;41911;52.362;4.978;2022-09-09T03:12:21;13.0;12.0;
55686;PMS5003;41911;52.362;4.978;2022-09-09T03:12:52;13.0;12.0;
55686;PMS5003;41911;52.362;4.978;2022-09-09T03:13:23;12.0;12.0;
55686;PMS5003;41911;52.362;4.978;2022-09-09T03:13:54;12.0;12.0;
55686;PMS5003;41911;52.362;4.978;2022-09-09T03:14:25;14.0;12.0;
55686;PMS5003;41911;52.362;4.978;2022-09-09T03:14:56;16.0;15.0;
55686;PMS5003;41911;52.362;4.978;2022-09-09T03:15:27;14.0;13.0;
55686;PMS5003;41911;52.362;4.978;2022-09-09T03:15:58;11.0;10.0;
55686;PMS5003;41911;52.362;4.978;2022-09-09T03:16:29;12.0;11.0;
55686;PMS5003;41911;52.362;4.978;2022-09-09T03:17:00;12.0;11.0;
55686;PMS5003;41911;52.362;4.978;2022-09-09T03:17:31;12.0;12.0;
55686;PMS5003;41911;52.362;4.978;2022-09-09T03:18:02;11.0;11.0;
55686;PMS5003;41911;52.362;4.978;2022-09-09T03:18:33;12.0;12.0;
55686;PMS5003;41911;52.362;4.978;2022-09-09T03:19:04;12.0;11.0;
55686;PMS5003;41911;52.362;4.978;2022-09-09T03:19:35;11.0;11.0;
55686;PMS5003;41911;52.362;4.978;2022-09-09T03:20:06;10.0;9.0;
55686;PMS5003;41911;52.362;4.978;2022-09-09T03:20:38;12.0;11.0;
55686;PMS5003;41911;52.362;4.978;2022-09-09T03:21:08;12.0;12.0;
55686;PMS5003;41911;52.362;4.978;2022-09-09T03:21:39;12.0;11.0;
55686;PMS5003;41911;52.362;4.978;2022-09-09T03:22:10;12.0;12.0;
55686;PMS5003;41911;52.362;4.978;2022-09-09T03:22:41;11.0;11.0;
55686;PMS5003;41911;52.362;4.978;2022-09-09T03:23:12;12.0;12.0;
55686;PMS5003;41911;52.362;4.978;2022-09-09T03:23:43;12.0;12.0;
55686;PMS5003;41911;52.362;4.978;2022-09-09T03:24:14;15.0;15.0;
55686;PMS5003;41911;52.362;4.978;2022-09-09T03:24:46;12.0;10.0;
55686;PMS5003;41911;52.362;4.978;2022-09-09T03:25:17;11.0;11.0;
55686;PMS5003;41911;52.362;4.978;2022-09-09T03:25:48;11.0;11.0;
55686;PMS5003;41911;52.362;4.978;2022-09-09T03:26:19;14.0;13.0;
55686;PMS5003;41911;52.362;4.978;2022-09-09T03:26:50;12.0;12.0;
55686;PMS5003;41911;52.362;4.978;2022-09-09T03:27:21;13.0;11.0;
55686;PMS5003;41911;52.362;4.978;2022-09-09T03:27:52;13.0;12.0;
55686;PMS5003;41911;52.362;4.978;2022-09-09T03:28:25;12.0;12.0;
55686;PMS5003;41911;52.362;4.978;2022-09-09T03:28:56;14.0;12.0;
55686;PMS5003;41911;52.362;4.978;2022-09-09T03:29:27;12.0;11.0;
55686;PMS5003;41911;52.362;4.978;2022-09-09T03:29:58;13.0;12.0;
55686;PMS5003;41911;52.362;4.978;2022-09-09T03:30:29;14.0;12.0;
55686;PMS5003;41911;52.362;4.978;2022-09-09T03:31:00;14.0;13.0;
55686;PMS5003;41911;52.362;4.978;2022-09-09T03:31:31;10.0;10.0;
55686;PMS5003;41911;52.362;4.978;2022-09-09T03:32:03;13.0;13.0;
55686;PMS5003;41911;52.362;4.978;2022-09-09T03:32:34;11.0;10.0;
55686;PMS5003;41911;52.362;4.978;2022-09-09T03:33:05;16.0;14.0;
55686;PMS5003;41911;52.362;4.978;2022-09-09T03:33:36;12.0;11.0;
55686;PMS5003;41911;52.362;4.978;2022-09-09T03:34:07;11.0;11.0;
55686;PMS5003;41911;52.362;4.978;2022-09-09T03:34:38;12.0;11.0;
55686;PMS5003;41911;52.362;4.978;2022-09-09T03:35:09;13.0;13.0;
55686;PMS5003;41911;52.362;4.978;2022-09-09T03:35:44;13.0;12.0;
55686;PMS5003;41911;52.362;4.978;2022-09-09T03:36:16;15.0;12.0;
55686;PMS5003;41911;52.362;4.978;2022-09-09T03:36:47;10.0;10.0;
55686;PMS5003;41911;52.362;4.978;2022-09-09T03:37:18;11.0;11.0;
55686;PMS5003;41911;52.362;4.978;2022-09-09T03:37:50;11.0;10.0;
55686;PMS5003;41911;52.362;4.978;2022-09-09T03:38:20;11.0;10.0;
55686;PMS5003;41911;52.362;4.978;2022-09-09T03:38:51;10.0;10.0;
55686;PMS5003;41911;52.362;4.978;2022-09-09T03:39:23;13.0;13.0;
55686;PMS5003;41911;52.362;4.978;2022-09-09T03:39:54;15.0;15.0;
55686;PMS5003;41911;52.362;4.978;2022-09-09T03:40:25;16.0;15.0;
55686;PMS5003;41911;52.362;4.978;2022-09-09T03:40:57;16.0;15.0;
55686;PMS5003;41911;52.362;4.978;2022-09-09T03:41:28;13.0;13.0;
55686;PMS5003;41911;52.362;4.978;2022-09-09T03:42:00;11.0;11.0;
55686;PMS5003;41911;52.362;4.978;2022-09-09T03:42:31;14.0;13.0;
55686;PMS5003;41911;52.362;4.978;2022-09-09T03:43:02;14.0;13.0;
55686;PMS5003;41911;52.362;4.978;2022-09-09T03:43:33;14.0;13.0;
55686;PMS5003;41911;52.362;4.978;2022-09-09T03:44:04;13.0;13.0;